createdAt,value
2022-08-09T00:04:34.347Z,20.08
2022-08-09T00:09:14.045Z,20.00
2022-08-09T00:14:17.295Z,19.92
2022-08-09T00:19:13.777Z,19.94
2022-08-09T00:24:12.714Z,19.87
2022-08-09T00:29:39.785Z,19.82
2022-08-09T00:34:13.591Z,19.74
2022-08-09T00:40:01.842Z,19.64
2022-08-09T00:44:25.538Z,19.62
2022-08-09T00:49:13.688Z,19.54
2022-08-09T00:54:12.337Z,19.45
2022-08-09T00:59:12.271Z,19.45
2022-08-09T01:04:13.194Z,19.49
2022-08-09T01:09:19.160Z,19.49
2022-08-09T01:14:12.040Z,19.41
2022-08-09T01:19:17.269Z,19.35
2022-08-09T01:24:12.943Z,19.24
2022-08-09T01:29:11.872Z,19.24
2022-08-09T01:34:11.794Z,19.12
2022-08-09T01:39:11.789Z,19.01
2022-08-09T01:44:11.676Z,18.98
2022-08-09T01:49:12.679Z,18.83
2022-08-09T01:54:11.574Z,18.83
2022-08-09T01:59:11.505Z,18.75
2022-08-09T02:04:11.438Z,18.76
2022-08-09T02:09:11.423Z,18.74
2022-08-09T02:14:15.836Z,18.68
2022-08-09T02:19:12.255Z,18.63
2022-08-09T02:24:11.196Z,18.58
2022-08-09T02:29:12.144Z,18.61
2022-08-09T02:34:13.774Z,18.58
2022-08-09T02:39:14.591Z,18.64
2022-08-09T02:44:19.880Z,18.54
2022-08-09T02:49:11.857Z,18.51
2022-08-09T02:54:10.795Z,18.38
2022-08-09T02:59:13.826Z,18.34
2022-08-09T03:04:16.770Z,18.38
2022-08-09T03:09:11.597Z,18.26
2022-08-09T03:14:10.558Z,18.11
2022-08-09T03:19:14.519Z,18.06
2022-08-09T03:24:11.428Z,17.96
2022-08-09T03:29:13.522Z,17.88
2022-08-09T03:34:11.343Z,17.90
2022-08-09T03:39:10.294Z,17.90
2022-08-09T03:44:10.184Z,17.79
2022-08-09T03:49:10.133Z,17.75
2022-08-09T03:54:11.128Z,17.76
2022-08-09T03:59:17.238Z,17.72
2022-08-09T04:04:14.693Z,17.71
2022-08-09T04:09:13.648Z,17.73
2022-08-09T04:14:53.710Z,17.68
2022-08-09T04:19:11.101Z,17.59
2022-08-09T04:24:10.668Z,17.56
2022-08-09T04:29:13.496Z,17.52
2022-08-09T04:34:10.541Z,17.49
2022-08-09T04:39:09.501Z,17.46
2022-08-09T04:44:11.098Z,17.35
2022-08-09T04:49:09.348Z,17.38
2022-08-09T04:54:10.264Z,17.45
2022-08-09T04:59:13.190Z,17.41
2022-08-09T05:04:10.220Z,17.47
2022-08-09T05:09:09.086Z,17.54
2022-08-09T05:14:09.018Z,17.62
2022-08-09T05:19:08.948Z,17.66
2022-08-09T05:24:09.160Z,17.73
2022-08-09T05:29:17.300Z,17.83
2022-08-09T05:34:16.916Z,18.01
2022-08-09T05:39:09.717Z,18.18
2022-08-09T05:44:08.651Z,18.30
2022-08-09T05:49:33.893Z,18.54
2022-08-09T05:54:09.502Z,18.75
2022-08-09T05:59:08.432Z,18.96
2022-08-09T06:04:08.437Z,19.26
2022-08-09T06:09:23.133Z,19.53
2022-08-09T06:14:09.242Z,19.75
2022-08-09T06:19:08.189Z,20.05
2022-08-09T06:24:08.124Z,20.27
2022-08-09T06:29:08.058Z,20.56
2022-08-09T06:34:09.492Z,20.86
2022-08-09T06:39:09.153Z,21.14
2022-08-09T06:44:07.890Z,21.44
2022-08-09T06:49:07.822Z,21.66
2022-08-09T06:54:09.112Z,21.96
2022-08-09T07:00:49.735Z,22.30
2022-08-09T07:04:10.366Z,22.62
2022-08-09T07:09:56.502Z,22.92
2022-08-09T07:14:08.820Z,23.23
2022-08-09T07:19:07.773Z,23.51
2022-08-09T07:24:07.373Z,23.79
2022-08-09T07:29:13.116Z,24.15
2022-08-09T07:34:08.260Z,24.48
2022-08-09T07:39:11.930Z,24.84
2022-08-09T07:44:08.139Z,25.14
2022-08-09T07:49:07.109Z,25.52
2022-08-09T07:54:08.814Z,25.86
2022-08-09T07:59:12.483Z,26.20
2022-08-09T08:04:10.459Z,26.63
2022-08-09T08:09:18.177Z,27.04
2022-08-09T08:14:07.755Z,27.50
2022-08-09T08:19:06.725Z,27.90
2022-08-09T08:24:12.202Z,28.35
2022-08-09T08:29:07.639Z,28.72
2022-08-09T08:34:06.561Z,29.18
2022-08-09T08:39:06.568Z,29.61
2022-08-09T08:44:06.385Z,29.92
2022-08-09T08:49:06.404Z,30.20
2022-08-09T08:54:06.265Z,30.51
2022-08-09T08:59:18.711Z,30.78
2022-08-09T09:04:07.147Z,31.08
2022-08-09T09:09:06.722Z,31.52
2022-08-09T09:14:07.040Z,32.02
2022-08-09T09:19:37.191Z,32.45
2022-08-09T09:24:10.555Z,32.77
2022-08-09T09:29:11.181Z,32.95
2022-08-09T09:34:06.788Z,33.04
2022-08-09T09:39:05.907Z,33.26
2022-08-09T09:44:11.981Z,33.58
2022-08-09T09:49:06.613Z,33.81
2022-08-09T09:54:17.113Z,33.82
2022-08-09T09:59:06.498Z,33.93
2022-08-09T10:04:08.895Z,34.00
2022-08-09T10:09:21.774Z,34.08
2022-08-09T10:14:07.060Z,34.22
2022-08-09T10:19:05.305Z,34.25
2022-08-09T10:24:05.209Z,34.35
2022-08-09T10:29:34.833Z,34.52
2022-08-09T10:34:18.883Z,34.62
2022-08-09T10:39:16.041Z,34.73
2022-08-09T10:44:05.989Z,34.86
2022-08-09T10:49:04.897Z,34.86
2022-08-09T10:54:05.185Z,35.01
2022-08-09T10:59:04.783Z,35.29
2022-08-09T11:04:04.897Z,35.51
2022-08-09T11:09:15.721Z,35.60
2022-08-09T11:14:05.614Z,35.73
2022-08-09T11:19:09.762Z,35.91
2022-08-09T11:24:05.520Z,36.02
2022-08-09T11:29:04.440Z,35.97
2022-08-09T11:34:04.392Z,35.94
2022-08-09T11:39:04.350Z,36.06
2022-08-09T11:44:04.297Z,36.09
2022-08-09T11:49:05.127Z,36.14
2022-08-09T11:54:08.190Z,36.15
2022-08-09T11:59:05.089Z,36.20
2022-08-09T12:04:04.106Z,36.25
2022-08-09T12:09:04.009Z,36.14
2022-08-09T12:14:09.479Z,36.13
2022-08-09T12:19:04.866Z,36.15
2022-08-09T12:24:09.606Z,36.07
2022-08-09T12:29:29.814Z,35.98
2022-08-09T12:34:04.678Z,35.95
2022-08-09T12:39:04.427Z,36.00
2022-08-09T12:44:05.198Z,36.04
2022-08-09T12:49:03.588Z,35.97
2022-08-09T12:54:03.457Z,35.95
2022-08-09T12:59:03.430Z,35.83
2022-08-09T13:04:03.320Z,35.79
2022-08-09T13:09:03.288Z,35.83
2022-08-09T13:14:36.884Z,35.76
2022-08-09T13:19:04.136Z,35.75
2022-08-09T13:24:16.340Z,35.56
2022-08-09T13:29:04.070Z,35.50
2022-08-09T13:34:02.988Z,35.39
2022-08-09T13:41:19.428Z,35.12
2022-08-09T13:44:05.511Z,35.19
2022-08-09T13:49:02.806Z,35.19
2022-08-09T13:54:02.769Z,35.04
2022-08-09T13:59:02.685Z,34.94
2022-08-09T14:04:11.150Z,34.94
2022-08-09T14:09:03.864Z,34.82
2022-08-09T14:14:24.209Z,34.83
2022-08-09T14:19:03.512Z,34.90
2022-08-09T14:24:10.516Z,34.83
2022-08-09T14:29:03.409Z,34.73
2022-08-09T14:34:04.346Z,34.62
2022-08-09T14:39:08.231Z,34.23
2022-08-09T14:44:03.157Z,34.01
2022-08-09T14:49:02.123Z,33.91
2022-08-09T14:54:02.048Z,33.89
2022-08-09T14:59:02.238Z,33.91
2022-08-09T15:04:01.965Z,33.86
2022-08-09T15:09:01.946Z,33.78
2022-08-09T15:14:04.848Z,33.55
2022-08-09T15:19:15.804Z,33.39
2022-08-09T15:24:12.171Z,33.29
2022-08-09T15:29:04.556Z,33.10
2022-08-09T15:34:32.420Z,32.97
2022-08-09T15:39:02.522Z,32.77
2022-08-09T15:44:02.013Z,32.69
2022-08-09T15:49:20.663Z,32.41
2022-08-09T15:54:07.986Z,32.27
2022-08-09T15:59:02.553Z,32.19
2022-08-09T16:04:01.269Z,32.01
2022-08-09T16:09:04.766Z,31.74
2022-08-09T16:14:02.681Z,31.64
2022-08-09T16:19:02.033Z,31.46
2022-08-09T16:24:02.198Z,31.24
2022-08-09T16:29:05.846Z,31.10
2022-08-09T16:34:04.056Z,30.86
2022-08-09T16:39:00.758Z,30.67
2022-08-09T16:44:00.725Z,30.51
2022-08-09T16:49:18.670Z,30.29
2022-08-09T16:54:25.987Z,30.07
2022-08-09T16:59:06.916Z,29.95
2022-08-09T17:04:01.480Z,29.63
2022-08-09T17:09:12.105Z,29.46
2022-08-09T17:14:02.197Z,29.37
2022-08-09T17:19:00.268Z,29.15
2022-08-09T17:24:26.867Z,28.93
2022-08-09T17:29:01.214Z,28.75
2022-08-09T17:34:00.125Z,28.59
2022-08-09T17:39:00.076Z,28.47
2022-08-09T17:44:41.728Z,28.31
2022-08-09T17:49:00.947Z,28.10
2022-08-09T17:53:59.857Z,27.95
2022-08-09T17:58:59.939Z,27.79
2022-08-09T18:03:59.729Z,27.68
2022-08-09T18:08:59.687Z,27.45
2022-08-09T18:14:09.429Z,27.34
2022-08-09T18:19:03.524Z,27.13
2022-08-09T18:24:09.448Z,26.98
2022-08-09T18:30:38.041Z,26.79
2022-08-09T18:34:00.390Z,26.64
2022-08-09T18:39:02.614Z,26.46
2022-08-09T18:43:59.226Z,26.30
2022-08-09T18:49:02.008Z,26.16
2022-08-09T18:54:01.888Z,26.03
2022-08-09T18:59:01.148Z,25.88
2022-08-09T19:04:06.219Z,25.66
2022-08-09T19:09:02.444Z,25.48
2022-08-09T19:14:00.267Z,25.40
2022-08-09T19:19:26.180Z,25.26
2022-08-09T19:24:39.668Z,25.12
2022-08-09T19:29:01.901Z,24.99
2022-08-09T19:33:58.613Z,24.86
2022-08-09T19:38:58.586Z,24.71
2022-08-09T19:44:02.661Z,24.65
2022-08-09T19:49:02.020Z,24.53
2022-08-09T19:53:58.370Z,24.45
2022-08-09T19:59:39.326Z,24.36
2022-08-09T20:04:17.100Z,24.31
2022-08-09T20:08:59.535Z,24.19
2022-08-09T20:13:58.242Z,24.08
2022-08-09T20:19:42.639Z,23.94
2022-08-09T20:23:59.012Z,23.89
2022-08-09T20:28:57.954Z,23.76
2022-08-09T20:33:58.493Z,23.70
2022-08-09T20:39:29.069Z,23.59
2022-08-09T20:43:58.747Z,23.55
2022-08-09T20:48:57.663Z,23.48
2022-08-09T20:53:57.626Z,23.39
2022-08-09T20:58:58.811Z,23.34
2022-08-09T21:05:48.438Z,23.31
2022-08-09T21:08:58.433Z,23.18
2022-08-09T21:13:59.272Z,23.06
2022-08-09T21:19:16.942Z,22.96
2022-08-09T21:24:02.109Z,22.91
2022-08-09T21:28:57.299Z,22.73
2022-08-09T21:33:57.114Z,22.61
2022-08-09T21:38:58.605Z,22.41
2022-08-09T21:43:58.187Z,22.25
2022-08-09T21:48:57.031Z,22.19
2022-08-09T21:53:56.895Z,22.04
2022-08-09T21:58:56.808Z,22.00
2022-08-09T22:03:59.210Z,21.94
2022-08-09T22:08:56.656Z,21.84
2022-08-09T22:13:56.701Z,21.75
2022-08-09T22:18:56.593Z,21.66
2022-08-09T22:24:00.092Z,21.67
2022-08-09T22:28:57.415Z,21.67
2022-08-09T22:33:56.744Z,21.65
2022-08-09T22:38:56.299Z,21.67
2022-08-09T22:44:03.683Z,21.65
2022-08-09T22:49:01.875Z,21.53
2022-08-09T22:54:02.211Z,21.47
2022-08-09T22:58:57.042Z,21.32
2022-08-09T23:04:06.121Z,21.26
2022-08-09T23:08:57.110Z,21.23
2022-08-09T23:13:55.860Z,21.11
2022-08-09T23:18:55.808Z,20.95
2022-08-09T23:24:05.423Z,20.90
2022-08-09T23:28:56.661Z,20.82
2022-08-09T23:33:55.573Z,20.75
2022-08-09T23:38:55.528Z,20.65
2022-08-09T23:43:55.460Z,20.65
2022-08-09T23:48:55.407Z,20.61
2022-08-09T23:54:01.984Z,20.60
2022-08-09T23:58:56.287Z,20.52
